createdAt,value
2017-12-27T00:00:19.083Z,21.43
2017-12-27T00:00:56.339Z,21.41
2017-12-27T00:01:33.711Z,21.43
2017-12-27T00:02:10.975Z,20.94
2017-12-27T00:02:48.212Z,21.40
2017-12-27T00:03:25.585Z,21.43
2017-12-27T00:04:02.939Z,21.43
2017-12-27T00:04:40.248Z,21.41
2017-12-27T00:05:17.572Z,21.40
2017-12-27T00:05:54.922Z,21.38
2017-12-27T00:06:32.271Z,21.36
2017-12-27T00:07:09.696Z,21.37
2017-12-27T00:07:46.887Z,21.36
2017-12-27T00:08:24.159Z,21.36
2017-12-27T00:09:01.539Z,21.33
2017-12-27T00:09:38.803Z,21.32
2017-12-27T00:10:16.031Z,21.29
2017-12-27T00:10:53.379Z,21.28
2017-12-27T00:11:30.681Z,21.29
2017-12-27T00:12:08.058Z,21.27
2017-12-27T00:12:45.219Z,21.26
2017-12-27T00:13:22.494Z,21.24
2017-12-27T00:13:59.900Z,21.22
2017-12-27T00:14:37.248Z,21.22
2017-12-27T00:15:14.619Z,21.21
2017-12-27T00:15:51.940Z,21.21
2017-12-27T00:16:29.159Z,21.19
2017-12-27T00:17:06.367Z,21.17
2017-12-27T00:17:43.583Z,21.18
2017-12-27T00:18:20.911Z,21.19
2017-12-27T00:19:09.223Z,21.18
2017-12-27T00:19:46.583Z,21.16
2017-12-27T00:20:23.875Z,21.15
2017-12-27T00:21:01.132Z,21.14
2017-12-27T00:21:38.428Z,21.12
2017-12-27T00:22:15.734Z,21.11
2017-12-27T00:22:52.999Z,21.13
2017-12-27T00:23:30.238Z,21.13
2017-12-27T00:24:07.683Z,21.13
2017-12-27T00:24:44.995Z,21.13
2017-12-27T00:25:22.388Z,21.10
2017-12-27T00:25:59.656Z,20.92
2017-12-27T00:26:36.955Z,21.08
2017-12-27T00:27:14.368Z,21.07
2017-12-27T00:27:51.559Z,21.07
2017-12-27T00:28:28.798Z,21.09
2017-12-27T00:29:06.129Z,21.08
2017-12-27T00:29:43.915Z,21.04
2017-12-27T00:30:21.195Z,21.05
2017-12-27T00:30:55.355Z,21.02
2017-12-27T00:31:28.672Z,21.00
2017-12-27T00:31:59.847Z,20.99
2017-12-27T00:32:31.033Z,20.98
2017-12-27T00:33:02.982Z,20.98
2017-12-27T00:33:34.932Z,20.98
2017-12-27T00:34:06.574Z,20.98
2017-12-27T00:34:38.487Z,20.97
2017-12-27T00:35:10.165Z,20.95
2017-12-27T00:35:41.806Z,20.95
2017-12-27T00:36:13.755Z,20.95
2017-12-27T00:36:45.705Z,20.93
2017-12-27T00:37:17.653Z,20.94
2017-12-27T00:37:49.605Z,20.93
2017-12-27T00:38:21.551Z,20.92
2017-12-27T00:38:53.505Z,20.91
2017-12-27T00:39:25.155Z,20.90
2017-12-27T00:39:56.844Z,20.89
2017-12-27T00:40:28.484Z,20.92
2017-12-27T00:41:00.123Z,20.91
2017-12-27T00:41:32.018Z,20.93
2017-12-27T00:42:03.707Z,20.95
2017-12-27T00:42:35.340Z,20.95
2017-12-27T00:43:06.979Z,20.97
2017-12-27T00:43:38.611Z,20.94
2017-12-27T00:44:10.248Z,20.95
2017-12-27T00:44:41.908Z,20.94
2017-12-27T00:45:13.950Z,20.94
2017-12-27T00:45:45.584Z,20.94
2017-12-27T00:46:17.219Z,20.94
2017-12-27T00:46:48.854Z,20.96
2017-12-27T00:47:20.695Z,20.97
2017-12-27T00:47:52.357Z,20.96
2017-12-27T00:48:23.995Z,20.98
2017-12-27T00:48:55.627Z,20.98
2017-12-27T00:49:27.278Z,20.98
2017-12-27T00:49:58.911Z,21.02
2017-12-27T00:50:30.600Z,21.01
2017-12-27T00:51:02.240Z,21.03
2017-12-27T00:51:33.878Z,21.05
2017-12-27T00:52:05.519Z,21.05
2017-12-27T00:52:37.159Z,21.05
2017-12-27T00:53:08.799Z,21.06
2017-12-27T00:53:40.452Z,21.08
2017-12-27T00:54:12.347Z,21.08
2017-12-27T00:54:43.995Z,21.07
2017-12-27T00:55:15.643Z,21.06
2017-12-27T00:55:47.526Z,21.04
2017-12-27T00:56:19.166Z,21.04
2017-12-27T00:56:50.805Z,20.90
2017-12-27T00:57:22.439Z,20.92
2017-12-27T00:57:54.075Z,21.04
2017-12-27T00:58:25.717Z,21.03
2017-12-27T00:58:57.352Z,21.05
2017-12-27T00:59:28.995Z,21.04
2017-12-27T01:00:00.632Z,21.04
2017-12-27T01:00:32.271Z,21.04
2017-12-27T01:01:03.955Z,21.05
2017-12-27T01:01:35.591Z,21.05
2017-12-27T01:02:07.231Z,21.06
2017-12-27T01:02:38.882Z,21.05
2017-12-27T01:03:10.517Z,21.02
2017-12-27T01:03:42.208Z,21.02
2017-12-27T01:04:14.157Z,21.02
2017-12-27T01:04:46.104Z,21.03
2017-12-27T01:05:17.746Z,21.03
2017-12-27T01:05:49.391Z,21.03
2017-12-27T01:06:21.084Z,20.99
2017-12-27T01:06:52.723Z,21.00
2017-12-27T01:07:24.371Z,21.03
2017-12-27T01:07:56.012Z,21.03
2017-12-27T01:08:27.650Z,21.05
2017-12-27T01:08:59.291Z,21.03
2017-12-27T01:09:30.940Z,21.05
2017-12-27T01:10:02.615Z,21.04
2017-12-27T01:10:34.255Z,21.06
2017-12-27T01:11:06.116Z,21.05
2017-12-27T01:11:37.812Z,21.04
2017-12-27T01:12:09.451Z,21.03
2017-12-27T01:12:41.100Z,21.04
2017-12-27T01:13:12.735Z,21.05
2017-12-27T01:13:44.379Z,21.06
2017-12-27T01:14:16.015Z,21.07
2017-12-27T01:14:47.659Z,21.07
2017-12-27T01:15:19.299Z,21.08
2017-12-27T01:15:50.948Z,21.06
2017-12-27T01:16:22.583Z,21.07
2017-12-27T01:16:54.223Z,21.07
2017-12-27T01:17:25.867Z,21.08
2017-12-27T01:17:57.512Z,21.06
2017-12-27T01:18:29.152Z,21.07
2017-12-27T01:19:00.799Z,21.07
2017-12-27T01:19:32.435Z,21.06
2017-12-27T01:20:04.076Z,21.08
2017-12-27T01:20:35.719Z,21.09
2017-12-27T01:21:07.355Z,21.08
2017-12-27T01:21:39.085Z,21.09
2017-12-27T01:22:10.902Z,21.07
2017-12-27T01:22:42.772Z,21.07
2017-12-27T01:23:14.408Z,21.09
2017-12-27T01:23:46.039Z,21.14
2017-12-27T01:24:18.507Z,21.15
2017-12-27T01:24:50.142Z,21.18
2017-12-27T01:25:21.771Z,21.18
2017-12-27T01:25:53.407Z,21.18
2017-12-27T01:26:25.052Z,21.19
2017-12-27T01:26:56.885Z,21.20
2017-12-27T01:27:28.857Z,21.22
2017-12-27T01:28:00.807Z,21.25
2017-12-27T01:28:32.757Z,21.27
2017-12-27T01:29:04.914Z,21.26
2017-12-27T01:29:36.615Z,21.26
2017-12-27T01:30:08.256Z,21.28
2017-12-27T01:30:39.886Z,21.27
2017-12-27T01:31:11.544Z,21.25
2017-12-27T01:31:43.220Z,21.24
2017-12-27T01:32:14.862Z,21.27
2017-12-27T01:32:46.547Z,21.29
2017-12-27T01:33:18.188Z,21.30
2017-12-27T01:33:49.832Z,21.27
2017-12-27T01:34:21.472Z,21.29
2017-12-27T01:34:53.114Z,21.29
2017-12-27T01:35:24.759Z,21.29
2017-12-27T01:35:56.588Z,21.30
2017-12-27T01:36:28.308Z,21.30
2017-12-27T01:37:00.203Z,21.31
2017-12-27T01:37:31.847Z,21.30
2017-12-27T01:38:03.802Z,21.32
2017-12-27T01:38:35.486Z,21.31
2017-12-27T01:39:07.124Z,21.32
2017-12-27T01:39:39.000Z,21.28
2017-12-27T01:40:10.631Z,21.29
2017-12-27T01:40:42.266Z,21.30
2017-12-27T01:41:14.004Z,21.29
2017-12-27T01:41:45.675Z,21.27
2017-12-27T01:42:17.312Z,21.27
2017-12-27T01:42:48.951Z,21.28
2017-12-27T01:43:20.634Z,21.29
2017-12-27T01:43:52.272Z,21.28
2017-12-27T01:44:23.873Z,21.28
2017-12-27T01:44:55.517Z,21.30
2017-12-27T01:45:27.151Z,21.28
2017-12-27T01:45:58.976Z,21.29
2017-12-27T01:46:30.929Z,21.30
2017-12-27T01:47:02.566Z,21.34
2017-12-27T01:47:34.213Z,21.32
2017-12-27T01:48:05.851Z,21.30
2017-12-27T01:48:37.536Z,21.34
2017-12-27T01:49:09.174Z,21.33
2017-12-27T01:49:40.815Z,21.30
2017-12-27T01:50:12.456Z,21.28
2017-12-27T01:50:44.115Z,21.25
2017-12-27T01:51:15.814Z,21.28
2017-12-27T01:51:47.479Z,21.30
2017-12-27T01:52:19.120Z,21.30
2017-12-27T01:52:51.048Z,21.30
2017-12-27T01:53:22.882Z,21.28
2017-12-27T01:53:54.530Z,21.26
2017-12-27T01:54:26.200Z,21.28
2017-12-27T01:54:57.842Z,21.27
2017-12-27T01:55:29.503Z,21.26
2017-12-27T01:56:01.143Z,21.29
2017-12-27T01:56:32.846Z,21.30
2017-12-27T01:57:04.502Z,21.30
2017-12-27T01:57:36.138Z,21.28
2017-12-27T01:58:07.775Z,21.26
2017-12-27T01:58:39.419Z,21.26
2017-12-27T01:59:11.365Z,21.24
2017-12-27T01:59:43.027Z,21.25
2017-12-27T02:00:14.667Z,21.24
2017-12-27T02:00:46.303Z,21.26
2017-12-27T02:01:17.939Z,21.24
2017-12-27T02:01:49.575Z,21.22
2017-12-27T02:02:21.207Z,21.22
2017-12-27T02:02:52.842Z,21.24
2017-12-27T02:03:24.496Z,21.24
2017-12-27T02:03:56.141Z,21.22
2017-12-27T02:04:27.975Z,21.21
2017-12-27T02:04:59.611Z,21.21
2017-12-27T02:05:31.247Z,21.24
2017-12-27T02:06:02.947Z,21.24
2017-12-27T02:06:34.591Z,21.21
2017-12-27T02:07:06.227Z,21.19
2017-12-27T02:07:38.135Z,21.21
2017-12-27T02:08:09.892Z,21.22
2017-12-27T02:08:41.841Z,21.22
2017-12-27T02:09:13.790Z,21.22
2017-12-27T02:09:45.487Z,21.17
2017-12-27T02:10:17.381Z,21.20
2017-12-27T02:10:49.256Z,21.18
2017-12-27T02:11:20.896Z,21.19
2017-12-27T02:11:52.527Z,21.19
2017-12-27T02:12:24.162Z,21.18
2017-12-27T02:12:55.839Z,21.21
2017-12-27T02:13:27.476Z,21.21
2017-12-27T02:13:59.111Z,21.22
2017-12-27T02:14:30.756Z,21.20
2017-12-27T02:15:02.443Z,21.17
2017-12-27T02:15:34.415Z,21.17
2017-12-27T02:16:06.067Z,21.17
2017-12-27T02:16:37.751Z,21.16
2017-12-27T02:17:09.391Z,21.16
2017-12-27T02:17:41.035Z,21.16
2017-12-27T02:18:12.676Z,21.17
2017-12-27T02:18:44.340Z,21.18
2017-12-27T02:19:15.985Z,21.17
2017-12-27T02:19:47.858Z,21.17
2017-12-27T02:20:19.550Z,21.16
2017-12-27T02:20:51.449Z,21.15
2017-12-27T02:21:23.401Z,21.14
2017-12-27T02:21:55.067Z,21.15
2017-12-27T02:22:26.710Z,21.16
2017-12-27T02:22:58.351Z,21.14
2017-12-27T02:23:29.987Z,21.15
2017-12-27T02:24:01.913Z,21.17
2017-12-27T02:24:33.747Z,21.15
2017-12-27T02:25:05.504Z,21.16
2017-12-27T02:25:37.195Z,21.15
2017-12-27T02:26:08.840Z,21.14
2017-12-27T02:26:40.491Z,21.17
2017-12-27T02:27:12.127Z,21.17
2017-12-27T02:27:43.758Z,21.16
2017-12-27T02:28:15.387Z,21.16
2017-12-27T02:28:47.023Z,21.15
2017-12-27T02:29:18.687Z,21.14
2017-12-27T02:29:50.392Z,21.15
2017-12-27T02:30:22.031Z,21.15
2017-12-27T02:30:53.676Z,21.16
2017-12-27T02:31:25.319Z,21.17
2017-12-27T02:31:57.156Z,21.17
2017-12-27T02:32:29.105Z,21.15
2017-12-27T02:33:00.943Z,21.16
2017-12-27T02:33:32.696Z,21.15
2017-12-27T02:34:04.648Z,21.17
2017-12-27T02:34:36.286Z,21.17
2017-12-27T02:35:07.928Z,21.15
2017-12-27T02:35:39.580Z,21.15
2017-12-27T02:36:11.231Z,21.16
2017-12-27T02:36:42.876Z,21.17
2017-12-27T02:37:14.515Z,21.17
2017-12-27T02:37:46.155Z,21.15
2017-12-27T02:38:17.791Z,21.15
2017-12-27T02:38:49.438Z,21.16
2017-12-27T02:39:21.070Z,21.18
2017-12-27T02:39:52.906Z,21.18
2017-12-27T02:40:24.669Z,21.18
2017-12-27T02:40:56.311Z,21.19
2017-12-27T02:41:28.246Z,21.19
2017-12-27T02:42:00.116Z,21.15
2017-12-27T02:42:31.751Z,21.17
2017-12-27T02:43:03.388Z,21.19
2017-12-27T02:43:35.027Z,21.20
2017-12-27T02:44:06.764Z,21.20
2017-12-27T02:44:38.394Z,21.19
2017-12-27T02:45:10.063Z,21.21
2017-12-27T02:45:41.695Z,21.19
2017-12-27T02:46:13.342Z,21.20
2017-12-27T02:46:45.040Z,21.18
2017-12-27T02:47:16.876Z,21.20
2017-12-27T02:47:48.519Z,21.20
2017-12-27T02:48:20.163Z,21.18
2017-12-27T02:48:51.803Z,21.20
2017-12-27T02:49:23.443Z,21.21
2017-12-27T02:49:55.079Z,21.17
2017-12-27T02:50:26.719Z,21.19
2017-12-27T02:50:58.351Z,21.18
2017-12-27T02:51:29.983Z,21.16
2017-12-27T02:52:01.673Z,21.17
2017-12-27T02:52:33.341Z,21.15
2017-12-27T02:53:04.984Z,21.16
2017-12-27T02:53:36.625Z,21.15
2017-12-27T02:54:08.455Z,21.14
2017-12-27T02:54:40.112Z,21.15
2017-12-27T02:55:11.857Z,21.11
2017-12-27T02:55:43.724Z,21.11
2017-12-27T02:56:15.357Z,21.12
2017-12-27T02:56:46.995Z,21.10
2017-12-27T02:57:18.679Z,21.10
2017-12-27T02:57:50.307Z,21.13
2017-12-27T02:58:21.944Z,21.11
2017-12-27T02:58:53.587Z,21.13
2017-12-27T02:59:25.222Z,21.14
2017-12-27T02:59:56.855Z,21.11
2017-12-27T03:00:28.454Z,21.15
2017-12-27T03:01:00.225Z,21.16
2017-12-27T03:01:31.859Z,21.16
2017-12-27T03:02:03.514Z,21.17
2017-12-27T03:02:35.199Z,21.23
2017-12-27T03:03:06.836Z,21.29
2017-12-27T03:03:38.468Z,21.26
2017-12-27T03:04:10.103Z,21.22
2017-12-27T03:04:41.746Z,21.19
2017-12-27T03:05:13.378Z,21.17
2017-12-27T03:05:45.020Z,21.19
2017-12-27T03:06:16.660Z,21.18
2017-12-27T03:06:48.291Z,21.19
2017-12-27T03:07:20.235Z,21.16
2017-12-27T03:07:52.064Z,21.19
2017-12-27T03:08:23.826Z,21.19
2017-12-27T03:08:55.551Z,21.21
2017-12-27T03:09:27.417Z,21.19
2017-12-27T03:09:59.284Z,21.20
2017-12-27T03:10:30.923Z,21.20
2017-12-27T03:11:02.558Z,21.18
2017-12-27T03:11:34.195Z,21.18
2017-12-27T03:12:05.827Z,21.18
2017-12-27T03:12:37.576Z,21.17
2017-12-27T03:13:09.263Z,21.18
2017-12-27T03:13:40.899Z,21.18
2017-12-27T03:14:12.535Z,21.21
2017-12-27T03:14:44.175Z,21.21
2017-12-27T03:15:15.811Z,21.21
2017-12-27T03:15:47.451Z,21.19
2017-12-27T03:16:19.091Z,21.22
2017-12-27T03:16:50.727Z,21.20
2017-12-27T03:17:22.368Z,21.22
2017-12-27T03:17:54.012Z,21.21
2017-12-27T03:18:25.699Z,21.21
2017-12-27T03:18:57.335Z,21.21
2017-12-27T03:19:28.971Z,21.20
2017-12-27T03:20:00.612Z,21.20
2017-12-27T03:20:32.247Z,21.19
2017-12-27T03:21:03.883Z,21.19
2017-12-27T03:21:35.519Z,21.20
2017-12-27T03:22:07.167Z,21.20
2017-12-27T03:22:38.807Z,21.20
2017-12-27T03:23:10.449Z,21.21
2017-12-27T03:23:42.131Z,21.21
2017-12-27T03:24:13.967Z,21.22
2017-12-27T03:24:45.604Z,21.22
2017-12-27T03:25:17.239Z,21.21
2017-12-27T03:25:48.878Z,21.20
2017-12-27T03:26:20.521Z,21.18
2017-12-27T03:26:52.164Z,21.17
2017-12-27T03:27:23.804Z,21.18
2017-12-27T03:27:55.439Z,21.18
2017-12-27T03:28:27.076Z,21.17
2017-12-27T03:28:58.782Z,21.19
2017-12-27T03:29:30.731Z,21.20
2017-12-27T03:30:02.371Z,21.21
2017-12-27T03:30:34.019Z,21.18
2017-12-27T03:31:05.847Z,21.22
2017-12-27T03:31:37.607Z,21.22
2017-12-27T03:32:09.264Z,21.23
2017-12-27T03:32:40.899Z,21.23
2017-12-27T03:33:12.540Z,21.22
2017-12-27T03:33:44.179Z,21.23
2017-12-27T03:34:16.122Z,21.22
2017-12-27T03:34:47.985Z,21.20
2017-12-27T03:35:19.623Z,21.16
2017-12-27T03:35:51.263Z,21.15
2017-12-27T03:36:22.899Z,21.14
2017-12-27T03:36:54.639Z,21.16
2017-12-27T03:37:26.503Z,21.15
2017-12-27T03:37:58.134Z,21.13
2017-12-27T03:38:29.873Z,21.14
2017-12-27T03:39:01.523Z,21.14
2017-12-27T03:39:33.207Z,21.11
2017-12-27T03:40:04.850Z,21.13
2017-12-27T03:40:36.498Z,21.13
2017-12-27T03:41:08.136Z,21.12
2017-12-27T03:41:39.776Z,21.12
2017-12-27T03:42:11.420Z,21.14
2017-12-27T03:42:43.055Z,21.14
2017-12-27T03:43:14.690Z,21.13
2017-12-27T03:43:46.335Z,21.13
2017-12-27T03:44:17.968Z,21.12
2017-12-27T03:44:49.607Z,21.11
2017-12-27T03:45:21.243Z,21.11
2017-12-27T03:45:52.883Z,20.74
2017-12-27T03:46:24.523Z,21.08
2017-12-27T03:46:56.168Z,21.08
2017-12-27T03:47:27.810Z,21.09
2017-12-27T03:47:59.451Z,21.10
2017-12-27T03:48:31.090Z,21.11
2017-12-27T03:49:02.731Z,21.09
2017-12-27T03:49:34.370Z,21.07
2017-12-27T03:50:06.051Z,21.05
2017-12-27T03:50:37.691Z,21.05
2017-12-27T03:51:09.513Z,21.07
2017-12-27T03:51:41.147Z,21.05
2017-12-27T03:52:13.035Z,21.05
2017-12-27T03:52:44.667Z,21.04
2017-12-27T03:53:16.307Z,21.05
2017-12-27T03:53:48.102Z,21.05
2017-12-27T03:54:19.929Z,21.02
2017-12-27T03:54:51.693Z,21.03
2017-12-27T03:55:23.379Z,21.05
2017-12-27T03:55:55.007Z,21.05
2017-12-27T03:56:26.642Z,21.05
2017-12-27T03:56:58.279Z,21.04
2017-12-27T03:57:29.914Z,21.04
2017-12-27T03:58:01.551Z,21.06
2017-12-27T03:58:33.189Z,21.05
2017-12-27T03:59:05.065Z,21.05
2017-12-27T03:59:36.759Z,21.07
2017-12-27T04:00:08.418Z,21.04
2017-12-27T04:00:40.114Z,21.06
2017-12-27T04:01:11.755Z,21.07
2017-12-27T04:01:43.395Z,21.08
2017-12-27T04:02:15.035Z,21.08
2017-12-27T04:02:46.904Z,21.06
2017-12-27T04:03:18.534Z,21.08
2017-12-27T04:03:50.172Z,21.06
2017-12-27T04:04:21.811Z,21.07
2017-12-27T04:04:53.453Z,21.08
2017-12-27T04:05:25.095Z,21.08
2017-12-27T04:05:56.792Z,21.08
2017-12-27T04:06:28.670Z,21.09
2017-12-27T04:07:00.455Z,21.10
2017-12-27T04:07:32.327Z,21.09
2017-12-27T04:08:04.089Z,21.07
2017-12-27T04:08:35.727Z,21.06
2017-12-27T04:09:07.368Z,21.08
2017-12-27T04:09:39.003Z,21.06
2017-12-27T04:10:10.833Z,21.06
2017-12-27T04:10:42.485Z,21.05
2017-12-27T04:11:14.171Z,21.06
2017-12-27T04:11:45.808Z,21.07
2017-12-27T04:12:17.721Z,21.06
2017-12-27T04:12:49.559Z,21.06
2017-12-27T04:13:21.231Z,21.02
2017-12-27T04:13:52.863Z,21.06
2017-12-27T04:14:24.578Z,21.03
2017-12-27T04:14:56.211Z,21.04
2017-12-27T04:15:27.847Z,21.03
2017-12-27T04:15:59.483Z,21.02
2017-12-27T04:16:31.182Z,21.03
2017-12-27T04:17:02.827Z,21.03
2017-12-27T04:17:34.463Z,21.03
2017-12-27T04:18:06.104Z,21.02
2017-12-27T04:18:37.743Z,21.02
2017-12-27T04:19:09.420Z,21.02
2017-12-27T04:19:41.063Z,21.02
2017-12-27T04:20:12.704Z,21.02
2017-12-27T04:20:44.346Z,21.01
2017-12-27T04:21:15.979Z,21.01
2017-12-27T04:21:47.995Z,21.02
2017-12-27T04:22:19.841Z,21.00
2017-12-27T04:22:51.785Z,21.01
2017-12-27T04:23:23.427Z,21.00
2017-12-27T04:23:55.663Z,21.01
2017-12-27T04:24:27.325Z,21.03
2017-12-27T04:24:58.966Z,21.02
2017-12-27T04:25:30.610Z,21.01
2017-12-27T04:26:02.250Z,21.03
2017-12-27T04:26:34.084Z,21.03
2017-12-27T04:27:05.782Z,21.06
2017-12-27T04:27:37.411Z,21.05
2017-12-27T04:28:09.049Z,21.05
2017-12-27T04:28:40.682Z,21.03
2017-12-27T04:29:12.407Z,21.04
2017-12-27T04:29:44.068Z,21.03
2017-12-27T04:30:15.710Z,21.04
2017-12-27T04:30:47.347Z,21.03
2017-12-27T04:31:18.993Z,21.03
2017-12-27T04:31:50.631Z,21.07
2017-12-27T04:32:22.320Z,21.07
2017-12-27T04:32:53.950Z,21.07
2017-12-27T04:33:25.583Z,21.06
2017-12-27T04:33:57.220Z,21.05
2017-12-27T04:34:28.862Z,21.04
2017-12-27T04:35:00.500Z,21.06
2017-12-27T04:35:32.135Z,21.04
2017-12-27T04:36:03.766Z,21.04
2017-12-27T04:36:35.411Z,21.05
2017-12-27T04:37:07.053Z,21.06
2017-12-27T04:37:38.929Z,21.06
2017-12-27T04:38:10.567Z,21.06
2017-12-27T04:38:42.198Z,21.03
2017-12-27T04:39:13.831Z,21.04
2017-12-27T04:39:45.468Z,21.06
2017-12-27T04:40:17.106Z,21.05
2017-12-27T04:40:48.743Z,21.06
2017-12-27T04:41:20.482Z,21.04
2017-12-27T04:41:52.124Z,21.03
2017-12-27T04:42:23.766Z,21.04
2017-12-27T04:42:55.454Z,21.03
2017-12-27T04:43:27.086Z,21.01
2017-12-27T04:43:58.718Z,20.98
2017-12-27T04:44:30.354Z,20.99
2017-12-27T04:45:01.997Z,21.01
2017-12-27T04:45:33.634Z,21.00
2017-12-27T04:46:05.269Z,20.98
2017-12-27T04:46:37.207Z,20.96
2017-12-27T04:47:08.871Z,20.95
2017-12-27T04:47:40.512Z,20.95
2017-12-27T04:48:12.199Z,20.93
2017-12-27T04:48:44.083Z,20.92
2017-12-27T04:49:15.723Z,20.93
2017-12-27T04:49:47.365Z,20.92
2017-12-27T04:50:19.008Z,20.93
2017-12-27T04:50:50.653Z,20.92
2017-12-27T04:51:22.534Z,20.95
2017-12-27T04:51:54.171Z,20.92
2017-12-27T04:52:25.804Z,20.89
2017-12-27T04:52:57.439Z,20.89
2017-12-27T04:53:29.131Z,20.91
2017-12-27T04:54:00.772Z,20.94
2017-12-27T04:54:32.451Z,20.97
2017-12-27T04:55:04.276Z,20.94
2017-12-27T04:55:35.919Z,20.98
2017-12-27T04:56:07.685Z,20.95
2017-12-27T04:56:39.347Z,20.98
2017-12-27T04:57:10.984Z,20.99
2017-12-27T04:57:42.627Z,21.00
2017-12-27T04:58:14.268Z,20.98
2017-12-27T04:58:45.947Z,20.96
2017-12-27T04:59:17.586Z,20.97
2017-12-27T04:59:49.243Z,20.96
2017-12-27T05:00:21.111Z,20.96
2017-12-27T05:00:52.766Z,20.95
2017-12-27T05:01:24.533Z,20.94
2017-12-27T05:01:56.191Z,20.94
2017-12-27T05:02:27.831Z,20.94
2017-12-27T05:02:59.484Z,20.96
2017-12-27T05:03:31.114Z,20.95
2017-12-27T05:04:02.711Z,20.97
2017-12-27T05:04:34.568Z,20.98
2017-12-27T05:05:06.397Z,21.02
2017-12-27T05:05:38.158Z,21.02
2017-12-27T05:06:09.798Z,21.03
2017-12-27T05:06:41.444Z,21.07
2017-12-27T05:07:13.089Z,21.05
2017-12-27T05:07:44.732Z,21.08
2017-12-27T05:08:16.564Z,21.09
2017-12-27T05:08:48.319Z,21.09
2017-12-27T05:09:20.007Z,21.09
2017-12-27T05:09:51.651Z,21.09
2017-12-27T05:10:23.552Z,21.08
2017-12-27T05:10:55.199Z,21.06
2017-12-27T05:11:26.864Z,21.07
2017-12-27T05:11:58.530Z,21.09
2017-12-27T05:12:30.167Z,21.10
2017-12-27T05:13:01.998Z,21.06
2017-12-27T05:13:33.635Z,21.04
2017-12-27T05:14:05.271Z,21.05
2017-12-27T05:14:36.992Z,21.05
2017-12-27T05:15:08.643Z,21.06
2017-12-27T05:15:40.299Z,21.06
2017-12-27T05:16:11.978Z,21.06
2017-12-27T05:16:43.611Z,21.07
2017-12-27T05:17:15.487Z,21.07
2017-12-27T05:17:47.150Z,21.05
2017-12-27T05:18:18.784Z,21.05
2017-12-27T05:18:50.432Z,21.05
2017-12-27T05:19:22.084Z,21.02
2017-12-27T05:19:53.767Z,21.01
2017-12-27T05:20:25.668Z,21.03
2017-12-27T05:20:57.327Z,21.04
2017-12-27T05:21:28.964Z,21.05
2017-12-27T05:22:00.798Z,21.04
2017-12-27T05:22:32.542Z,21.05
2017-12-27T05:23:04.236Z,21.04
2017-12-27T05:23:36.133Z,21.07
2017-12-27T05:24:07.802Z,21.04
2017-12-27T05:24:39.431Z,21.06
2017-12-27T05:25:11.115Z,21.03
2017-12-27T05:25:42.751Z,21.05
2017-12-27T05:26:14.416Z,21.06
2017-12-27T05:26:46.283Z,21.05
2017-12-27T05:27:17.920Z,21.05
2017-12-27T05:27:49.575Z,21.04
2017-12-27T05:28:21.525Z,21.04
2017-12-27T05:28:53.192Z,21.02
2017-12-27T05:29:24.835Z,21.02
2017-12-27T05:29:56.475Z,21.05
2017-12-27T05:30:28.168Z,21.07
2017-12-27T05:31:00.195Z,21.09
2017-12-27T05:31:31.840Z,21.08
2017-12-27T05:32:03.503Z,21.06
2017-12-27T05:32:35.162Z,21.07
2017-12-27T05:33:06.808Z,21.06
2017-12-27T05:33:38.481Z,21.09
2017-12-27T05:34:10.124Z,21.08
2017-12-27T05:34:41.764Z,21.09
2017-12-27T05:35:13.403Z,21.08
2017-12-27T05:35:45.091Z,21.09
2017-12-27T05:36:16.723Z,21.08
2017-12-27T05:36:48.364Z,21.08
2017-12-27T05:37:19.996Z,21.07
2017-12-27T05:37:51.632Z,21.07
2017-12-27T05:38:23.273Z,21.09
2017-12-27T05:38:54.911Z,21.08
2017-12-27T05:39:26.542Z,21.08
2017-12-27T05:39:58.179Z,21.05
2017-12-27T05:40:29.819Z,21.07
2017-12-27T05:41:02.169Z,21.07
2017-12-27T05:41:33.808Z,21.06
2017-12-27T05:42:05.442Z,21.08
2017-12-27T05:42:37.079Z,21.10
2017-12-27T05:43:08.719Z,21.07
2017-12-27T05:43:40.359Z,21.09
2017-12-27T05:44:11.993Z,21.10
2017-12-27T05:44:43.631Z,21.02
2017-12-27T05:45:15.268Z,21.11
2017-12-27T05:45:46.902Z,21.09
2017-12-27T05:46:18.819Z,21.10
2017-12-27T05:46:50.450Z,21.11
2017-12-27T05:47:22.095Z,21.12
2017-12-27T05:47:53.735Z,21.11
2017-12-27T05:48:25.376Z,21.09
2017-12-27T05:48:57.011Z,21.10
2017-12-27T05:49:28.651Z,21.10
2017-12-27T05:50:00.287Z,21.10
2017-12-27T05:50:31.927Z,21.11
2017-12-27T05:51:03.604Z,21.10
2017-12-27T05:51:35.291Z,21.09
2017-12-27T05:52:06.931Z,21.11
2017-12-27T05:52:38.566Z,21.10
2017-12-27T05:53:10.195Z,21.07
2017-12-27T05:53:41.838Z,21.07
2017-12-27T05:54:13.475Z,21.06
2017-12-27T05:54:45.139Z,21.08
2017-12-27T05:55:16.796Z,21.06
2017-12-27T05:55:48.439Z,21.06
2017-12-27T05:56:20.075Z,21.05
2017-12-27T05:56:51.773Z,21.05
2017-12-27T05:57:23.427Z,21.02
2017-12-27T05:57:55.077Z,21.04
2017-12-27T05:58:26.715Z,21.03
2017-12-27T05:58:58.346Z,21.01
2017-12-27T05:59:30.285Z,21.01
2017-12-27T06:00:02.234Z,21.02
2017-12-27T06:00:34.183Z,21.01
2017-12-27T06:01:06.010Z,21.04
2017-12-27T06:01:37.775Z,21.04
2017-12-27T06:02:09.464Z,21.02
2017-12-27T06:02:41.095Z,21.04
2017-12-27T06:03:12.731Z,21.05
2017-12-27T06:03:44.371Z,21.05
2017-12-27T06:04:16.291Z,21.06
2017-12-27T06:04:48.241Z,21.03
2017-12-27T06:05:20.189Z,21.03
2017-12-27T06:05:51.826Z,21.02
2017-12-27T06:06:23.464Z,21.00
2017-12-27T06:06:55.114Z,21.00
2017-12-27T06:07:26.965Z,21.00
2017-12-27T06:07:58.706Z,20.98
2017-12-27T06:08:30.338Z,21.00
2017-12-27T06:09:01.991Z,21.01
2017-12-27T06:09:33.827Z,20.99
2017-12-27T06:10:05.581Z,21.01
2017-12-27T06:10:37.216Z,21.01
2017-12-27T06:11:08.887Z,21.01
2017-12-27T06:11:40.523Z,21.01
2017-12-27T06:12:12.161Z,21.03
2017-12-27T06:12:43.848Z,21.04
2017-12-27T06:13:15.485Z,21.04
2017-12-27T06:13:47.123Z,21.05
2017-12-27T06:14:18.764Z,21.04
2017-12-27T06:14:50.402Z,21.05
2017-12-27T06:15:22.031Z,21.04
2017-12-27T06:15:53.663Z,21.03
2017-12-27T06:16:25.299Z,21.02
2017-12-27T06:16:56.935Z,21.03
2017-12-27T06:17:28.575Z,21.02
2017-12-27T06:18:00.267Z,21.01
2017-12-27T06:18:31.912Z,21.03
2017-12-27T06:19:03.547Z,21.03
2017-12-27T06:19:35.191Z,21.03
2017-12-27T06:20:06.826Z,21.01
2017-12-27T06:20:38.725Z,21.00
2017-12-27T06:21:10.379Z,21.02
2017-12-27T06:21:42.035Z,21.02
2017-12-27T06:22:13.675Z,21.00
2017-12-27T06:22:45.313Z,21.00
2017-12-27T06:23:16.947Z,20.98
2017-12-27T06:23:48.614Z,20.98
2017-12-27T06:24:20.268Z,20.97
2017-12-27T06:24:51.898Z,20.96
2017-12-27T06:25:23.530Z,20.95
2017-12-27T06:25:55.166Z,20.97
2017-12-27T06:26:26.868Z,20.88
2017-12-27T06:26:58.707Z,20.94
2017-12-27T06:27:30.379Z,20.96
2017-12-27T06:28:02.073Z,20.95
2017-12-27T06:28:33.903Z,20.96
2017-12-27T06:29:05.563Z,20.97
2017-12-27T06:29:37.212Z,20.95
2017-12-27T06:30:08.861Z,20.95
2017-12-27T06:30:40.500Z,20.98
2017-12-27T06:31:12.156Z,20.95
2017-12-27T06:31:43.795Z,20.94
2017-12-27T06:32:15.438Z,20.95
2017-12-27T06:32:47.080Z,20.95
2017-12-27T06:33:18.763Z,20.93
2017-12-27T06:33:50.402Z,20.96
2017-12-27T06:34:22.342Z,20.96
2017-12-27T06:34:54.290Z,20.95
2017-12-27T06:35:25.928Z,20.95
2017-12-27T06:35:57.545Z,20.95
2017-12-27T06:36:29.209Z,20.93
2017-12-27T06:37:00.854Z,20.92
2017-12-27T06:37:32.496Z,20.93
2017-12-27T06:38:04.446Z,20.94
2017-12-27T06:38:36.394Z,20.94
2017-12-27T06:39:08.343Z,20.96
2017-12-27T06:39:40.170Z,20.96
2017-12-27T06:40:11.936Z,20.96
2017-12-27T06:40:43.885Z,20.96
2017-12-27T06:41:15.833Z,20.96
2017-12-27T06:41:47.485Z,20.96
2017-12-27T06:42:19.142Z,20.97
2017-12-27T06:42:50.775Z,20.96
2017-12-27T06:43:22.415Z,20.95
2017-12-27T06:43:54.095Z,20.98
2017-12-27T06:44:25.739Z,20.97
2017-12-27T06:44:57.379Z,20.97
2017-12-27T06:45:29.016Z,20.98
2017-12-27T06:46:00.702Z,20.99
2017-12-27T06:46:32.562Z,21.00
2017-12-27T06:47:04.507Z,21.00
2017-12-27T06:47:36.424Z,21.01
2017-12-27T06:48:08.067Z,21.02
2017-12-27T06:48:39.706Z,21.00
2017-12-27T06:49:11.396Z,20.98
2017-12-27T06:49:43.037Z,21.02
2017-12-27T06:50:15.485Z,21.00
2017-12-27T06:50:47.195Z,21.00
2017-12-27T06:51:18.843Z,21.01
2017-12-27T06:51:50.514Z,21.01
2017-12-27T06:52:22.462Z,21.01
2017-12-27T06:52:54.100Z,21.01